Etusivu
METAR-TAF:

METAR-TAF

Lentoasemat :

Heidrun, Norja

Leveyspiiri: 65-19-30N, Pituuspiiri: 007-19-36E, korkeus merenpinnasta: 0 m

Tämänhetkinen sää

Tämä raportti tehtiin 41 minuuttia sitten, kello 06.50 UTC
Tuuli 14 kn koillisesta
Lämpötila 10°C
Kosteus 100%
Ilmanpaine 1015 hPa
Näkyvyys 10 km tai enemmän
Pilvistä 800 ft:n korkeudessa

METAR: ENHE 140650Z 04014KT 9999 OVC008 10/10 Q1015 W///S3

Aika: 09:31 (07:31 UTC)

Sääennuste

Tämä raportti tehtiin 2 tuntia ja 31 minuuttia sitten, kello 05.00 UTC
Ennuste voimassa 14. päivästä klo 06 UTC - 14. päivään klo 15 UTC
Tuuli 15 kn pohjoisesta/koillisesta
Näkyvyys 10 km tai enemmän
Hajonneita pilviä 800 ft:n korkeudessa
Todennäköisyys 30%
14. päivästä klo 06 UTC - 14. päivään klo 15 UTC
Hajonneita pilviä 1500 ft:n korkeudessa

TAF: ENHE 140500Z 1406/1415 02015KT 9999 BKN008 PROB30 1406/1415 BKN015

Säähavainnot ja -ennusteet yli 4000 lentoasemalta (METAR- ja TAF-raportit).

Käytössä olevat sääasemat on merkitty karttaan keltaisilla ja punaisilla pisteillä.

Aseta hiiri pisteen päälle nähdäksesi sääaseman nimen.

Klikkaa sitten nähdäksesi säähavainnot ja -ennusteet.

Kartan vaihtaminen: klikkaa mustalla rastilla varustettuja vihreitä pisteitä, niin voit zoomata sisään; viivalla varustettua vihreää pistettä, niin voit zoomata ulos tai vihreitä nuolia, niin pääset viereisille kartoille.


METAR-TAF: